sensor_id;sensor_type;location;lat;lon;timestamp;P1;durP1;ratioP1;P2;durP2;ratioP2
7783;SDS011;19359;51.402;6.778;2022-12-05T00:00:08;42.38;;;20.27;;
7783;SDS011;19359;51.402;6.778;2022-12-05T00:02:36;34.55;;;18.35;;
7783;SDS011;19359;51.402;6.778;2022-12-05T00:05:02;38.65;;;18.90;;
7783;SDS011;19359;51.402;6.778;2022-12-05T00:07:31;37.78;;;18.02;;
7783;SDS011;19359;51.402;6.778;2022-12-05T00:09:58;41.90;;;18.15;;
7783;SDS011;19359;51.402;6.778;2022-12-05T00:12:24;46.50;;;20.13;;
7783;SDS011;19359;51.402;6.778;2022-12-05T00:14:51;34.92;;;19.45;;
7783;SDS011;19359;51.402;6.778;2022-12-05T00:17:18;36.40;;;18.33;;
7783;SDS011;19359;51.402;6.778;2022-12-05T00:19:44;37.97;;;19.23;;
7783;SDS011;19359;51.402;6.778;2022-12-05T00:22:11;32.10;;;17.50;;
7783;SDS011;19359;51.402;6.778;2022-12-05T00:24:39;42.20;;;19.52;;
7783;SDS011;19359;51.402;6.778;2022-12-05T00:27:06;35.80;;;19.20;;
7783;SDS011;19359;51.402;6.778;2022-12-05T00:29:32;40.85;;;19.73;;
7783;SDS011;19359;51.402;6.778;2022-12-05T00:31:59;37.28;;;19.48;;
7783;SDS011;19359;51.402;6.778;2022-12-05T00:34:26;35.90;;;19.33;;
7783;SDS011;19359;51.402;6.778;2022-12-05T00:36:52;39.90;;;18.80;;
7783;SDS011;19359;51.402;6.778;2022-12-05T00:39:19;35.55;;;18.02;;
7783;SDS011;19359;51.402;6.778;2022-12-05T00:41:48;39.65;;;18.33;;
7783;SDS011;19359;51.402;6.778;2022-12-05T00:44:15;36.53;;;19.05;;
7783;SDS011;19359;51.402;6.778;2022-12-05T00:46:41;35.03;;;17.90;;
7783;SDS011;19359;51.402;6.778;2022-12-05T00:49:09;40.90;;;18.75;;
7783;SDS011;19359;51.402;6.778;2022-12-05T00:51:37;39.20;;;19.02;;
7783;SDS011;19359;51.402;6.778;2022-12-05T00:54:05;33.72;;;19.25;;
7783;SDS011;19359;51.402;6.778;2022-12-05T00:56:33;40.70;;;18.92;;
7783;SDS011;19359;51.402;6.778;2022-12-05T00:59:02;35.50;;;19.40;;
7783;SDS011;19359;51.402;6.778;2022-12-05T01:01:30;39.00;;;18.45;;
7783;SDS011;19359;51.402;6.778;2022-12-05T01:03:59;37.95;;;19.95;;
7783;SDS011;19359;51.402;6.778;2022-12-05T01:06:27;37.85;;;19.02;;
7783;SDS011;19359;51.402;6.778;2022-12-05T01:08:55;34.88;;;16.77;;
7783;SDS011;19359;51.402;6.778;2022-12-05T01:11:22;33.95;;;19.02;;
7783;SDS011;19359;51.402;6.778;2022-12-05T01:13:50;30.55;;;17.58;;
7783;SDS011;19359;51.402;6.778;2022-12-05T01:16:19;37.17;;;19.23;;
7783;SDS011;19359;51.402;6.778;2022-12-05T01:18:48;32.33;;;17.23;;
7783;SDS011;19359;51.402;6.778;2022-12-05T01:21:15;36.97;;;19.30;;
7783;SDS011;19359;51.402;6.778;2022-12-05T01:23:43;34.25;;;17.60;;
7783;SDS011;19359;51.402;6.778;2022-12-05T01:26:10;33.05;;;18.27;;
7783;SDS011;19359;51.402;6.778;2022-12-05T01:28:39;38.25;;;18.20;;
7783;SDS011;19359;51.402;6.778;2022-12-05T01:31:07;34.92;;;18.27;;
7783;SDS011;19359;51.402;6.778;2022-12-05T01:33:36;30.90;;;17.20;;
7783;SDS011;19359;51.402;6.778;2022-12-05T01:36:04;33.13;;;17.33;;
7783;SDS011;19359;51.402;6.778;2022-12-05T01:38:35;32.83;;;16.73;;
7783;SDS011;19359;51.402;6.778;2022-12-05T01:41:02;36.38;;;18.20;;
7783;SDS011;19359;51.402;6.778;2022-12-05T01:43:30;31.23;;;18.13;;
7783;SDS011;19359;51.402;6.778;2022-12-05T01:45:57;30.63;;;16.60;;
7783;SDS011;19359;51.402;6.778;2022-12-05T01:48:24;33.83;;;17.92;;
7783;SDS011;19359;51.402;6.778;2022-12-05T01:50:57;32.35;;;17.05;;
7783;SDS011;19359;51.402;6.778;2022-12-05T01:53:24;30.33;;;18.17;;
7783;SDS011;19359;51.402;6.778;2022-12-05T01:55:52;30.90;;;16.85;;
7783;SDS011;19359;51.402;6.778;2022-12-05T01:58:20;32.33;;;17.48;;
7783;SDS011;19359;51.402;6.778;2022-12-05T02:00:49;30.10;;;17.67;;
7783;SDS011;19359;51.402;6.778;2022-12-05T02:03:17;30.75;;;17.27;;
7783;SDS011;19359;51.402;6.778;2022-12-05T02:05:45;33.25;;;18.45;;
7783;SDS011;19359;51.402;6.778;2022-12-05T02:08:16;35.53;;;18.83;;
7783;SDS011;19359;51.402;6.778;2022-12-05T02:10:44;31.75;;;18.02;;
7783;SDS011;19359;51.402;6.778;2022-12-05T02:13:16;33.15;;;18.42;;
7783;SDS011;19359;51.402;6.778;2022-12-05T02:15:55;33.03;;;18.55;;
7783;SDS011;19359;51.402;6.778;2022-12-05T02:18:28;36.00;;;18.85;;
7783;SDS011;19359;51.402;6.778;2022-12-05T02:21:12;36.38;;;17.95;;
7783;SDS011;19359;51.402;6.778;2022-12-05T02:27:13;41.17;;;18.92;;
7783;SDS011;19359;51.402;6.778;2022-12-05T02:30:03;34.13;;;18.85;;
7783;SDS011;19359;51.402;6.778;2022-12-05T02:32:35;40.45;;;20.30;;
7783;SDS011;19359;51.402;6.778;2022-12-05T02:35:13;32.20;;;18.83;;
7783;SDS011;19359;51.402;6.778;2022-12-05T02:37:49;37.95;;;19.33;;
7783;SDS011;19359;51.402;6.778;2022-12-05T02:40:22;34.10;;;17.40;;
7783;SDS011;19359;51.402;6.778;2022-12-05T02:42:53;30.83;;;18.95;;
7783;SDS011;19359;51.402;6.778;2022-12-05T02:45:25;37.65;;;18.48;;
7783;SDS011;19359;51.402;6.778;2022-12-05T02:47:54;33.28;;;18.52;;
7783;SDS011;19359;51.402;6.778;2022-12-05T02:50:25;33.55;;;18.27;;
7783;SDS011;19359;51.402;6.778;2022-12-05T02:52:57;38.13;;;18.30;;
7783;SDS011;19359;51.402;6.778;2022-12-05T02:55:27;30.08;;;16.90;;
7783;SDS011;19359;51.402;6.778;2022-12-05T02:57:57;35.83;;;19.23;;
7783;SDS011;19359;51.402;6.778;2022-12-05T03:00:30;36.95;;;18.50;;
7783;SDS011;19359;51.402;6.778;2022-12-05T03:02:57;40.45;;;19.50;;
7783;SDS011;19359;51.402;6.778;2022-12-05T03:05:28;32.95;;;19.63;;
7783;SDS011;19359;51.402;6.778;2022-12-05T03:08:01;32.17;;;18.23;;
7783;SDS011;19359;51.402;6.778;2022-12-05T03:10:31;42.92;;;20.23;;
7783;SDS011;19359;51.402;6.778;2022-12-05T03:13:01;35.85;;;18.88;;
7783;SDS011;19359;51.402;6.778;2022-12-05T03:15:34;37.72;;;18.88;;
7783;SDS011;19359;51.402;6.778;2022-12-05T03:18:05;49.33;;;19.45;;
7783;SDS011;19359;51.402;6.778;2022-12-05T03:20:37;37.78;;;20.45;;
7783;SDS011;19359;51.402;6.778;2022-12-05T03:23:10;34.80;;;17.80;;
7783;SDS011;19359;51.402;6.778;2022-12-05T03:25:43;40.90;;;20.50;;
7783;SDS011;19359;51.402;6.778;2022-12-05T03:28:16;41.50;;;19.45;;
7783;SDS011;19359;51.402;6.778;2022-12-05T03:30:49;45.17;;;19.65;;
7783;SDS011;19359;51.402;6.778;2022-12-05T03:33:19;40.38;;;20.27;;
7783;SDS011;19359;51.402;6.778;2022-12-05T03:35:51;42.10;;;20.70;;
7783;SDS011;19359;51.402;6.778;2022-12-05T03:38:25;44.17;;;22.23;;
7783;SDS011;19359;51.402;6.778;2022-12-05T03:40:55;47.20;;;21.77;;
7783;SDS011;19359;51.402;6.778;2022-12-05T03:43:32;40.83;;;20.77;;
7783;SDS011;19359;51.402;6.778;2022-12-05T03:46:07;43.47;;;22.20;;
7783;SDS011;19359;51.402;6.778;2022-12-05T03:48:39;41.05;;;20.85;;
7783;SDS011;19359;51.402;6.778;2022-12-05T03:51:12;42.00;;;21.05;;
7783;SDS011;19359;51.402;6.778;2022-12-05T03:53:42;41.92;;;21.25;;
7783;SDS011;19359;51.402;6.778;2022-12-05T03:56:13;41.22;;;18.73;;
7783;SDS011;19359;51.402;6.778;2022-12-05T03:58:45;42.72;;;20.63;;
7783;SDS011;19359;51.402;6.778;2022-12-05T04:01:17;39.30;;;19.58;;
7783;SDS011;19359;51.402;6.778;2022-12-05T04:03:47;40.50;;;20.80;;
7783;SDS011;19359;51.402;6.778;2022-12-05T04:06:17;45.33;;;19.85;;
7783;SDS011;19359;51.402;6.778;2022-12-05T04:08:52;39.35;;;20.00;;
7783;SDS011;19359;51.402;6.778;2022-12-05T04:11:24;44.05;;;19.77;;
7783;SDS011;19359;51.402;6.778;2022-12-05T04:13:55;37.35;;;19.45;;
7783;SDS011;19359;51.402;6.778;2022-12-05T04:16:28;43.35;;;19.08;;
7783;SDS011;19359;51.402;6.778;2022-12-05T04:19:16;45.72;;;20.27;;
7783;SDS011;19359;51.402;6.778;2022-12-05T04:21:50;41.28;;;20.02;;
7783;SDS011;19359;51.402;6.778;2022-12-05T04:24:18;47.00;;;21.15;;
7783;SDS011;19359;51.402;6.778;2022-12-05T04:27:07;52.33;;;19.45;;
7783;SDS011;19359;51.402;6.778;2022-12-05T04:29:44;36.08;;;19.92;;
7783;SDS011;19359;51.402;6.778;2022-12-05T04:32:19;42.03;;;20.88;;
7783;SDS011;19359;51.402;6.778;2022-12-05T04:34:53;39.08;;;20.00;;
7783;SDS011;19359;51.402;6.778;2022-12-05T04:37:23;36.95;;;18.17;;
7783;SDS011;19359;51.402;6.778;2022-12-05T04:39:53;33.63;;;17.98;;
7783;SDS011;19359;51.402;6.778;2022-12-05T04:42:24;31.67;;;17.13;;
7783;SDS011;19359;51.402;6.778;2022-12-05T04:44:54;37.80;;;19.30;;
7783;SDS011;19359;51.402;6.778;2022-12-05T04:47:27;37.38;;;19.55;;
7783;SDS011;19359;51.402;6.778;2022-12-05T04:49:56;44.90;;;20.23;;
7783;SDS011;19359;51.402;6.778;2022-12-05T04:52:25;33.28;;;18.25;;
7783;SDS011;19359;51.402;6.778;2022-12-05T04:54:56;32.05;;;18.05;;
7783;SDS011;19359;51.402;6.778;2022-12-05T04:57:28;32.13;;;18.85;;
7783;SDS011;19359;51.402;6.778;2022-12-05T04:59:58;37.83;;;18.77;;
7783;SDS011;19359;51.402;6.778;2022-12-05T05:02:27;36.28;;;18.08;;
7783;SDS011;19359;51.402;6.778;2022-12-05T05:04:58;40.55;;;17.40;;
7783;SDS011;19359;51.402;6.778;2022-12-05T05:07:27;34.13;;;18.55;;
7783;SDS011;19359;51.402;6.778;2022-12-05T05:09:54;42.47;;;18.38;;
7783;SDS011;19359;51.402;6.778;2022-12-05T05:12:21;30.98;;;18.35;;
7783;SDS011;19359;51.402;6.778;2022-12-05T05:14:48;37.75;;;18.80;;
7783;SDS011;19359;51.402;6.778;2022-12-05T05:17:15;28.55;;;15.80;;
7783;SDS011;19359;51.402;6.778;2022-12-05T05:19:43;37.50;;;18.83;;
7783;SDS011;19359;51.402;6.778;2022-12-05T05:22:09;38.58;;;17.98;;
7783;SDS011;19359;51.402;6.778;2022-12-05T05:24:36;35.78;;;17.50;;
7783;SDS011;19359;51.402;6.778;2022-12-05T05:27:03;37.60;;;18.40;;
7783;SDS011;19359;51.402;6.778;2022-12-05T05:29:29;34.92;;;17.90;;
7783;SDS011;19359;51.402;6.778;2022-12-05T05:31:56;34.13;;;16.67;;
7783;SDS011;19359;51.402;6.778;2022-12-05T05:34:23;44.10;;;19.85;;
7783;SDS011;19359;51.402;6.778;2022-12-05T05:36:53;42.95;;;19.20;;
7783;SDS011;19359;51.402;6.778;2022-12-05T05:39:20;33.38;;;19.13;;
7783;SDS011;19359;51.402;6.778;2022-12-05T05:41:47;38.38;;;19.33;;
7783;SDS011;19359;51.402;6.778;2022-12-05T05:44:13;40.83;;;19.08;;
7783;SDS011;19359;51.402;6.778;2022-12-05T05:46:40;41.42;;;20.10;;
7783;SDS011;19359;51.402;6.778;2022-12-05T05:49:07;47.67;;;20.65;;
7783;SDS011;19359;51.402;6.778;2022-12-05T05:51:35;42.08;;;20.33;;
7783;SDS011;19359;51.402;6.778;2022-12-05T05:54:03;36.25;;;18.48;;
7783;SDS011;19359;51.402;6.778;2022-12-05T05:56:30;37.17;;;19.15;;
7783;SDS011;19359;51.402;6.778;2022-12-05T05:58:57;36.08;;;19.25;;
7783;SDS011;19359;51.402;6.778;2022-12-05T06:01:25;36.45;;;18.63;;
7783;SDS011;19359;51.402;6.778;2022-12-05T06:03:52;33.60;;;17.88;;
7783;SDS011;19359;51.402;6.778;2022-12-05T06:06:20;38.20;;;19.75;;
7783;SDS011;19359;51.402;6.778;2022-12-05T06:08:47;37.78;;;19.95;;
7783;SDS011;19359;51.402;6.778;2022-12-05T06:11:16;39.17;;;19.30;;
7783;SDS011;19359;51.402;6.778;2022-12-05T06:13:44;38.00;;;18.48;;
7783;SDS011;19359;51.402;6.778;2022-12-05T06:16:12;34.35;;;18.63;;
7783;SDS011;19359;51.402;6.778;2022-12-05T06:18:40;33.28;;;17.50;;
7783;SDS011;19359;51.402;6.778;2022-12-05T06:21:09;36.17;;;18.05;;
7783;SDS011;19359;51.402;6.778;2022-12-05T06:23:36;35.35;;;18.02;;
7783;SDS011;19359;51.402;6.778;2022-12-05T06:26:04;32.38;;;17.60;;
7783;SDS011;19359;51.402;6.778;2022-12-05T06:28:36;35.63;;;17.00;;
7783;SDS011;19359;51.402;6.778;2022-12-05T06:31:05;30.50;;;17.85;;
7783;SDS011;19359;51.402;6.778;2022-12-05T06:33:33;44.47;;;19.83;;
7783;SDS011;19359;51.402;6.778;2022-12-05T06:36:00;43.08;;;19.80;;
7783;SDS011;19359;51.402;6.778;2022-12-05T06:38:28;31.90;;;17.67;;
7783;SDS011;19359;51.402;6.778;2022-12-05T06:40:55;37.05;;;18.02;;
7783;SDS011;19359;51.402;6.778;2022-12-05T06:43:22;34.38;;;17.27;;
7783;SDS011;19359;51.402;6.778;2022-12-05T06:45:50;35.92;;;18.38;;
7783;SDS011;19359;51.402;6.778;2022-12-05T06:48:17;31.00;;;16.65;;
7783;SDS011;19359;51.402;6.778;2022-12-05T06:50:47;30.02;;;16.67;;
7783;SDS011;19359;51.402;6.778;2022-12-05T06:53:14;31.05;;;16.50;;
7783;SDS011;19359;51.402;6.778;2022-12-05T06:55:41;34.63;;;18.10;;
7783;SDS011;19359;51.402;6.778;2022-12-05T06:58:07;27.58;;;16.40;;
7783;SDS011;19359;51.402;6.778;2022-12-05T07:00:34;32.70;;;15.68;;
7783;SDS011;19359;51.402;6.778;2022-12-05T07:03:20;31.08;;;17.15;;
7783;SDS011;19359;51.402;6.778;2022-12-05T07:05:46;28.85;;;16.98;;
7783;SDS011;19359;51.402;6.778;2022-12-05T07:08:13;33.72;;;16.17;;
7783;SDS011;19359;51.402;6.778;2022-12-05T07:10:40;28.70;;;14.48;;
7783;SDS011;19359;51.402;6.778;2022-12-05T07:13:08;31.38;;;16.35;;
7783;SDS011;19359;51.402;6.778;2022-12-05T07:15:36;27.80;;;15.25;;
7783;SDS011;19359;51.402;6.778;2022-12-05T07:18:02;30.48;;;15.75;;
7783;SDS011;19359;51.402;6.778;2022-12-05T07:20:30;27.58;;;15.35;;
7783;SDS011;19359;51.402;6.778;2022-12-05T07:22:57;26.73;;;15.55;;
7783;SDS011;19359;51.402;6.778;2022-12-05T07:25:24;30.27;;;15.93;;
7783;SDS011;19359;51.402;6.778;2022-12-05T07:27:50;28.05;;;14.63;;
7783;SDS011;19359;51.402;6.778;2022-12-05T07:30:17;30.90;;;15.30;;
7783;SDS011;19359;51.402;6.778;2022-12-05T07:32:44;28.48;;;14.93;;
7783;SDS011;19359;51.402;6.778;2022-12-05T07:35:10;24.45;;;15.38;;
7783;SDS011;19359;51.402;6.778;2022-12-05T07:37:38;23.13;;;14.13;;
7783;SDS011;19359;51.402;6.778;2022-12-05T07:40:06;30.30;;;15.68;;
7783;SDS011;19359;51.402;6.778;2022-12-05T07:42:33;28.63;;;15.95;;
7783;SDS011;19359;51.402;6.778;2022-12-05T07:45:00;25.92;;;14.48;;
7783;SDS011;19359;51.402;6.778;2022-12-05T07:47:28;25.15;;;14.18;;
7783;SDS011;19359;51.402;6.778;2022-12-05T07:49:54;28.13;;;15.57;;
7783;SDS011;19359;51.402;6.778;2022-12-05T07:52:21;28.30;;;14.30;;
7783;SDS011;19359;51.402;6.778;2022-12-05T07:54:49;33.42;;;14.88;;
7783;SDS011;19359;51.402;6.778;2022-12-05T07:57:16;21.88;;;13.57;;
7783;SDS011;19359;51.402;6.778;2022-12-05T07:59:43;27.65;;;13.98;;
7783;SDS011;19359;51.402;6.778;2022-12-05T08:02:09;25.83;;;14.18;;
7783;SDS011;19359;51.402;6.778;2022-12-05T08:04:36;25.83;;;13.90;;
7783;SDS011;19359;51.402;6.778;2022-12-05T08:07:03;21.63;;;13.80;;
7783;SDS011;19359;51.402;6.778;2022-12-05T08:09:29;20.15;;;12.80;;
7783;SDS011;19359;51.402;6.778;2022-12-05T08:11:57;25.67;;;12.88;;
7783;SDS011;19359;51.402;6.778;2022-12-05T08:14:24;20.13;;;12.35;;
7783;SDS011;19359;51.402;6.778;2022-12-05T08:16:51;20.30;;;12.02;;
7783;SDS011;19359;51.402;6.778;2022-12-05T08:19:17;18.67;;;11.63;;
7783;SDS011;19359;51.402;6.778;2022-12-05T08:21:44;19.92;;;12.35;;
7783;SDS011;19359;51.402;6.778;2022-12-05T08:24:11;19.95;;;12.15;;
7783;SDS011;19359;51.402;6.778;2022-12-05T08:26:38;21.90;;;12.10;;
7783;SDS011;19359;51.402;6.778;2022-12-05T08:29:07;20.85;;;12.10;;
7783;SDS011;19359;51.402;6.778;2022-12-05T08:31:36;19.75;;;12.18;;
7783;SDS011;19359;51.402;6.778;2022-12-05T08:34:06;17.88;;;10.65;;
7783;SDS011;19359;51.402;6.778;2022-12-05T08:36:33;18.40;;;10.52;;
7783;SDS011;19359;51.402;6.778;2022-12-05T08:39:01;16.40;;;10.98;;
7783;SDS011;19359;51.402;6.778;2022-12-05T08:41:29;17.92;;;10.52;;
7783;SDS011;19359;51.402;6.778;2022-12-05T08:43:57;16.63;;;10.10;;
7783;SDS011;19359;51.402;6.778;2022-12-05T08:46:26;15.65;;;11.23;;
7783;SDS011;19359;51.402;6.778;2022-12-05T08:48:53;15.52;;;10.52;;
7783;SDS011;19359;51.402;6.778;2022-12-05T08:51:20;15.15;;;10.13;;
7783;SDS011;19359;51.402;6.778;2022-12-05T08:53:47;14.52;;;10.23;;
7783;SDS011;19359;51.402;6.778;2022-12-05T08:56:13;14.23;;;9.63;;
7783;SDS011;19359;51.402;6.778;2022-12-05T08:58:40;15.05;;;9.82;;
7783;SDS011;19359;51.402;6.778;2022-12-05T09:01:08;12.10;;;9.48;;
7783;SDS011;19359;51.402;6.778;2022-12-05T09:03:38;14.43;;;8.98;;
7783;SDS011;19359;51.402;6.778;2022-12-05T09:06:06;14.52;;;10.07;;
7783;SDS011;19359;51.402;6.778;2022-12-05T09:08:34;15.43;;;9.95;;
7783;SDS011;19359;51.402;6.778;2022-12-05T09:11:03;16.02;;;11.00;;
7783;SDS011;19359;51.402;6.778;2022-12-05T09:13:31;15.07;;;10.48;;
7783;SDS011;19359;51.402;6.778;2022-12-05T09:15:58;15.90;;;10.80;;
7783;SDS011;19359;51.402;6.778;2022-12-05T09:18:29;14.82;;;9.88;;
7783;SDS011;19359;51.402;6.778;2022-12-05T09:20:57;17.10;;;10.43;;
7783;SDS011;19359;51.402;6.778;2022-12-05T09:23:30;15.77;;;10.02;;
7783;SDS011;19359;51.402;6.778;2022-12-05T09:25:57;18.10;;;10.93;;
7783;SDS011;19359;51.402;6.778;2022-12-05T09:28:26;13.50;;;9.38;;
7783;SDS011;19359;51.402;6.778;2022-12-05T09:30:56;12.07;;;8.38;;
7783;SDS011;19359;51.402;6.778;2022-12-05T09:33:25;13.85;;;10.90;;
7783;SDS011;19359;51.402;6.778;2022-12-05T09:35:52;15.95;;;9.75;;
7783;SDS011;19359;51.402;6.778;2022-12-05T09:38:20;11.93;;;8.65;;
7783;SDS011;19359;51.402;6.778;2022-12-05T09:40:48;14.07;;;9.40;;
7783;SDS011;19359;51.402;6.778;2022-12-05T09:43:23;14.27;;;9.52;;
7783;SDS011;19359;51.402;6.778;2022-12-05T09:45:54;13.75;;;9.85;;
7783;SDS011;19359;51.402;6.778;2022-12-05T09:48:24;13.27;;;9.40;;
7783;SDS011;19359;51.402;6.778;2022-12-05T09:50:52;15.10;;;10.27;;
7783;SDS011;19359;51.402;6.778;2022-12-05T09:53:25;14.52;;;9.73;;
7783;SDS011;19359;51.402;6.778;2022-12-05T09:55:56;13.07;;;9.65;;
7783;SDS011;19359;51.402;6.778;2022-12-05T09:58:30;10.27;;;9.27;;
7783;SDS011;19359;51.402;6.778;2022-12-05T10:01:09;13.30;;;9.52;;
7783;SDS011;19359;51.402;6.778;2022-12-05T10:03:45;12.23;;;8.18;;
7783;SDS011;19359;51.402;6.778;2022-12-05T10:06:23;11.43;;;8.63;;
7783;SDS011;19359;51.402;6.778;2022-12-05T10:11:45;14.90;;;9.07;;
7783;SDS011;19359;51.402;6.778;2022-12-05T10:14:19;11.20;;;9.23;;
7783;SDS011;19359;51.402;6.778;2022-12-05T10:16:57;11.55;;;8.68;;
7783;SDS011;19359;51.402;6.778;2022-12-05T10:19:30;11.00;;;9.13;;
7783;SDS011;19359;51.402;6.778;2022-12-05T10:22:01;12.18;;;9.38;;
7783;SDS011;19359;51.402;6.778;2022-12-05T10:24:37;11.35;;;8.98;;
7783;SDS011;19359;51.402;6.778;2022-12-05T10:27:10;12.05;;;8.98;;
7783;SDS011;19359;51.402;6.778;2022-12-05T10:29:44;10.20;;;8.75;;
7783;SDS011;19359;51.402;6.778;2022-12-05T10:32:18;15.15;;;9.80;;
7783;SDS011;19359;51.402;6.778;2022-12-05T10:34:50;11.50;;;9.20;;
7783;SDS011;19359;51.402;6.778;2022-12-05T10:37:25;13.95;;;9.68;;
7783;SDS011;19359;51.402;6.778;2022-12-05T10:39:56;10.80;;;8.75;;
7783;SDS011;19359;51.402;6.778;2022-12-05T10:42:25;12.13;;;8.68;;
7783;SDS011;19359;51.402;6.778;2022-12-05T10:44:55;13.60;;;10.32;;
7783;SDS011;19359;51.402;6.778;2022-12-05T10:47:24;11.02;;;9.13;;
7783;SDS011;19359;51.402;6.778;2022-12-05T10:49:51;13.93;;;9.63;;
7783;SDS011;19359;51.402;6.778;2022-12-05T10:52:20;15.82;;;10.60;;
7783;SDS011;19359;51.402;6.778;2022-12-05T10:54:48;20.42;;;11.10;;
7783;SDS011;19359;51.402;6.778;2022-12-05T10:57:22;15.18;;;11.40;;
7783;SDS011;19359;51.402;6.778;2022-12-05T10:59:50;15.43;;;10.43;;
7783;SDS011;19359;51.402;6.778;2022-12-05T11:02:20;16.65;;;11.15;;
7783;SDS011;19359;51.402;6.778;2022-12-05T11:04:49;17.08;;;11.50;;
7783;SDS011;19359;51.402;6.778;2022-12-05T11:07:24;15.85;;;10.75;;
7783;SDS011;19359;51.402;6.778;2022-12-05T11:09:54;14.93;;;10.95;;
7783;SDS011;19359;51.402;6.778;2022-12-05T11:12:22;17.27;;;12.35;;
7783;SDS011;19359;51.402;6.778;2022-12-05T11:14:59;20.20;;;11.05;;
7783;SDS011;19359;51.402;6.778;2022-12-05T11:17:30;16.92;;;11.30;;
7783;SDS011;19359;51.402;6.778;2022-12-05T11:19:58;14.52;;;11.95;;
7783;SDS011;19359;51.402;6.778;2022-12-05T11:22:29;20.92;;;11.57;;
7783;SDS011;19359;51.402;6.778;2022-12-05T11:24:58;15.90;;;10.68;;
7783;SDS011;19359;51.402;6.778;2022-12-05T11:27:27;12.50;;;10.18;;
7783;SDS011;19359;51.402;6.778;2022-12-05T11:29:57;12.90;;;10.98;;
7783;SDS011;19359;51.402;6.778;2022-12-05T11:32:27;13.98;;;10.52;;
7783;SDS011;19359;51.402;6.778;2022-12-05T11:34:58;14.45;;;11.07;;
7783;SDS011;19359;51.402;6.778;2022-12-05T11:37:32;18.15;;;13.30;;
7783;SDS011;19359;51.402;6.778;2022-12-05T11:40:10;13.88;;;10.57;;
7783;SDS011;19359;51.402;6.778;2022-12-05T11:42:41;16.30;;;11.23;;
7783;SDS011;19359;51.402;6.778;2022-12-05T11:45:24;15.30;;;11.27;;
7783;SDS011;19359;51.402;6.778;2022-12-05T11:48:11;13.13;;;9.82;;
7783;SDS011;19359;51.402;6.778;2022-12-05T11:50:49;14.68;;;11.13;;
7783;SDS011;19359;51.402;6.778;2022-12-05T11:53:30;14.88;;;10.85;;
7783;SDS011;19359;51.402;6.778;2022-12-05T11:56:28;17.40;;;11.85;;
7783;SDS011;19359;51.402;6.778;2022-12-05T11:59:11;11.13;;;9.27;;
7783;SDS011;19359;51.402;6.778;2022-12-05T12:01:48;14.95;;;10.90;;
7783;SDS011;19359;51.402;6.778;2022-12-05T12:04:31;16.67;;;12.45;;
7783;SDS011;19359;51.402;6.778;2022-12-05T12:07:12;14.15;;;10.88;;
7783;SDS011;19359;51.402;6.778;2022-12-05T12:09:55;11.85;;;9.98;;
7783;SDS011;19359;51.402;6.778;2022-12-05T12:12:31;12.68;;;11.05;;
7783;SDS011;19359;51.402;6.778;2022-12-05T12:15:10;14.85;;;10.90;;
7783;SDS011;19359;51.402;6.778;2022-12-05T12:17:49;12.88;;;11.23;;
7783;SDS011;19359;51.402;6.778;2022-12-05T12:20:26;15.68;;;11.55;;
7783;SDS011;19359;51.402;6.778;2022-12-05T12:23:08;15.07;;;11.45;;
7783;SDS011;19359;51.402;6.778;2022-12-05T12:25:51;15.18;;;11.48;;
7783;SDS011;19359;51.402;6.778;2022-12-05T12:28:31;14.65;;;11.60;;
7783;SDS011;19359;51.402;6.778;2022-12-05T12:31:14;13.93;;;11.57;;
7783;SDS011;19359;51.402;6.778;2022-12-05T12:33:55;16.52;;;12.20;;
7783;SDS011;19359;51.402;6.778;2022-12-05T12:36:31;19.35;;;12.35;;
7783;SDS011;19359;51.402;6.778;2022-12-05T12:39:14;22.67;;;11.93;;
7783;SDS011;19359;51.402;6.778;2022-12-05T12:41:56;17.92;;;12.93;;
7783;SDS011;19359;51.402;6.778;2022-12-05T12:47:59;17.27;;;11.45;;
7783;SDS011;19359;51.402;6.778;2022-12-05T12:50:43;20.33;;;12.75;;
7783;SDS011;19359;51.402;6.778;2022-12-05T12:56:21;19.73;;;13.27;;
7783;SDS011;19359;51.402;6.778;2022-12-05T12:58:56;21.17;;;13.82;;
7783;SDS011;19359;51.402;6.778;2022-12-05T13:01:32;19.20;;;13.57;;
7783;SDS011;19359;51.402;6.778;2022-12-05T13:04:06;17.30;;;12.75;;
7783;SDS011;19359;51.402;6.778;2022-12-05T13:06:38;17.85;;;13.23;;
7783;SDS011;19359;51.402;6.778;2022-12-05T13:09:11;20.23;;;13.60;;
7783;SDS011;19359;51.402;6.778;2022-12-05T13:11:44;15.38;;;12.63;;
7783;SDS011;19359;51.402;6.778;2022-12-05T13:14:13;16.08;;;12.80;;
7783;SDS011;19359;51.402;6.778;2022-12-05T13:16:44;20.00;;;12.70;;
7783;SDS011;19359;51.402;6.778;2022-12-05T13:19:19;18.10;;;13.63;;
7783;SDS011;19359;51.402;6.778;2022-12-05T13:21:50;19.23;;;14.30;;
7783;SDS011;19359;51.402;6.778;2022-12-05T13:24:18;22.38;;;15.80;;
7783;SDS011;19359;51.402;6.778;2022-12-05T13:26:48;18.90;;;15.40;;
7783;SDS011;19359;51.402;6.778;2022-12-05T13:29:18;24.00;;;15.70;;
7783;SDS011;19359;51.402;6.778;2022-12-05T13:31:47;26.40;;;16.23;;
7783;SDS011;19359;51.402;6.778;2022-12-05T13:34:31;25.40;;;16.15;;
7783;SDS011;19359;51.402;6.778;2022-12-05T13:37:16;25.00;;;16.02;;
7783;SDS011;19359;51.402;6.778;2022-12-05T13:40:04;24.88;;;16.08;;
7783;SDS011;19359;51.402;6.778;2022-12-05T13:43:02;27.60;;;15.45;;
7783;SDS011;19359;51.402;6.778;2022-12-05T13:45:29;21.98;;;15.05;;
7783;SDS011;19359;51.402;6.778;2022-12-05T13:48:01;23.45;;;15.02;;
7783;SDS011;19359;51.402;6.778;2022-12-05T13:50:45;21.05;;;14.40;;
7783;SDS011;19359;51.402;6.778;2022-12-05T13:53:22;24.33;;;15.27;;
7783;SDS011;19359;51.402;6.778;2022-12-05T13:55:56;24.02;;;16.30;;
7783;SDS011;19359;51.402;6.778;2022-12-05T13:58:33;23.10;;;15.13;;
7783;SDS011;19359;51.402;6.778;2022-12-05T14:10:09;18.42;;;13.00;;
7783;SDS011;19359;51.402;6.778;2022-12-05T14:12:47;18.23;;;12.63;;
7783;SDS011;19359;51.402;6.778;2022-12-05T14:15:26;16.77;;;11.98;;
7783;SDS011;19359;51.402;6.778;2022-12-05T14:18:02;16.08;;;10.13;;
7783;SDS011;19359;51.402;6.778;2022-12-05T14:20:50;15.70;;;10.57;;
7783;SDS011;19359;51.402;6.778;2022-12-05T14:23:36;16.15;;;10.35;;
7783;SDS011;19359;51.402;6.778;2022-12-05T14:26:19;9.45;;;8.52;;
7783;SDS011;19359;51.402;6.778;2022-12-05T14:29:06;13.13;;;9.50;;
7783;SDS011;19359;51.402;6.778;2022-12-05T14:31:52;11.45;;;9.18;;
7783;SDS011;19359;51.402;6.778;2022-12-05T14:34:31;10.63;;;8.82;;
7783;SDS011;19359;51.402;6.778;2022-12-05T14:37:00;11.88;;;9.02;;
7783;SDS011;19359;51.402;6.778;2022-12-05T14:39:38;12.00;;;9.43;;
7783;SDS011;19359;51.402;6.778;2022-12-05T14:42:17;12.77;;;8.45;;
7783;SDS011;19359;51.402;6.778;2022-12-05T14:44:48;10.70;;;8.45;;
7783;SDS011;19359;51.402;6.778;2022-12-05T14:47:17;14.27;;;9.93;;
7783;SDS011;19359;51.402;6.778;2022-12-05T14:49:53;13.90;;;8.48;;
7783;SDS011;19359;51.402;6.778;2022-12-05T14:52:26;13.65;;;9.23;;
7783;SDS011;19359;51.402;6.778;2022-12-05T14:54:57;13.98;;;10.35;;
7783;SDS011;19359;51.402;6.778;2022-12-05T14:57:26;11.35;;;9.50;;
7783;SDS011;19359;51.402;6.778;2022-12-05T14:59:54;17.20;;;9.68;;
7783;SDS011;19359;51.402;6.778;2022-12-05T15:02:24;16.83;;;10.23;;
7783;SDS011;19359;51.402;6.778;2022-12-05T15:04:55;15.10;;;9.63;;
7783;SDS011;19359;51.402;6.778;2022-12-05T15:07:28;14.13;;;10.50;;
7783;SDS011;19359;51.402;6.778;2022-12-05T15:10:00;17.63;;;9.60;;
7783;SDS011;19359;51.402;6.778;2022-12-05T15:12:31;15.02;;;12.05;;
7783;SDS011;19359;51.402;6.778;2022-12-05T15:15:05;13.88;;;10.70;;
7783;SDS011;19359;51.402;6.778;2022-12-05T15:17:40;14.38;;;10.93;;
7783;SDS011;19359;51.402;6.778;2022-12-05T15:20:13;14.27;;;10.73;;